This is the latest recevied weather packets stored in our database for station/object OE6PWE-13. If no packets are shown the sender has not sent any weather packets the latest 10 day(s).
| Time | Temp. | Humidity | Pressure | Rain* | Wind** | Luminosity | Snow |
|---|---|---|---|---|---|---|---|
| 1787956212 | 22.22° C | 82% | 1012 hPa | 0 mm | - | - | - |
| 1787955311 | 21.11° C | 97% | 1013 hPa | 0 mm | - | - | - |
| 1787954412 | 21.11° C | 96% | 1012 hPa | 0 mm | - | - | - |
| 1787953512 | 21.67° C | 95% | 1012 hPa | 0 mm | - | - | - |
| 1787952612 | 21.67° C | 95% | 1011 hPa | 0 mm | - | - | - |
| 1787950812 | 21.67° C | 94% | 1011 hPa | 0 mm | - | - | - |
| 1787948112 | 21.67° C | 94% | 1011 hPa | 0 mm | - | - | - |
| 1787946312 | 22.22° C | 93% | 1011 hPa | 0 mm | - | - | - |
| 1787945412 | 22.22° C | 93% | 1011 hPa | 0 mm | - | - | - |
| 1787943612 | 22.78° C | 90% | 1011 hPa | 0 mm | - | - | - |
| 1787942711 | 23.33° C | 89% | 1011 hPa | 0 mm | - | - | - |
| 1787941812 | 23.33° C | 88% | 1010 hPa | 0 mm | - | - | - |
| 1787940912 | 23.89° C | 86% | 1010 hPa | 0 mm | - | - | - |
| 1787939111 | 25.56° C | 83% | 1010 hPa | 0 mm | - | - | - |
| 1787938212 | 26.11° C | 80% | 1010 hPa | 0 mm | - | - | - |
| 1787937312 | 26.67° C | 78% | 1010 hPa | 0 mm | - | - | - |
| 1787936412 | 27.78° C | 75% | 1010 hPa | 0 mm | - | - | - |
| 1787935511 | 28.89° C | 72% | 1010 hPa | 0 mm | - | - | - |
| 1787934611 | 29.44° C | 67% | 1010 hPa | 0 mm | - | - | - |
| 1787933712 | 29.44° C | 67% | 1010 hPa | 0 mm | - | - | - |
| 1787932812 | 30.56° C | 65% | 1010 hPa | 0 mm | - | - | - |
| 1787931912 | 30.56° C | 63% | 1010 hPa | 0 mm | - | - | - |
| 1787931012 | 30° C | 63% | 1010 hPa | 0 mm | - | - | - |
| 1787930112 | 29.44° C | 67% | 1011 hPa | 0 mm | - | - | - |
| 1787929212 | 28.89° C | 67% | 1011 hPa | 0 mm | - | - | - |
* Rain latest hour (hover to see other rain measurements)
** Current wind speed in m/s (hover to see current wind gust speed)